Time;durP1;ratioP1;P1;durP2;ratioP2;P2;SDS_P1;SDS_P2;PMS_P1;PMS_P2;Temp;Humidity;BMP_temperature;BMP_pressure;BME280_temperature;BME280_humidity;BME280_pressure;Samples;Min_cycle;Max_cycle;Signal;HPM_P1;HPM_P2
2023/07/07 00:00:15;;;;;;;20.90;12.45;;;;;;;;;;5041098;28;20406;-79
2023/07/07 00:02:41;;;;;;;20.02;11.63;;;;;;;;;;5038420;28;20113;-79
2023/07/07 00:05:07;;;;;;;20.58;10.32;;;;;;;;;;5042724;28;20052;-79
2023/07/07 00:07:34;;;;;;;17.13;9.40;;;;;;;;;;5041083;28;20034;-79
2023/07/07 00:10:00;;;;;;;14.30;8.50;;;;;;;;;;5040647;28;20033;-80
2023/07/07 00:12:30;;;;;;;12.13;7.90;;;;;;;;;;5038914;28;20068;-79
2023/07/07 00:14:56;;;;;;;15.70;8.45;;;;;;;;;;5037380;28;20029;-79
2023/07/07 00:17:21;;;;;;;13.43;8.60;;;;;;;;;;5037153;28;20026;-80
2023/07/07 00:19:47;;;;;;;15.93;8.90;;;;;;;;;;5042136;28;20593;-79
2023/07/07 00:22:14;;;;;;;13.23;8.20;;;;;;;;;;5040606;28;20056;-81
2023/07/07 00:24:40;;;;;;;14.40;8.13;;;;;;;;;;5055087;28;20040;-79
2023/07/07 00:27:06;;;;;;;13.40;7.93;;;;;;;;;;5032471;28;20037;-79
2023/07/07 00:29:32;;;;;;;12.70;7.75;;;;;;;;;;5055642;28;20041;-80
2023/07/07 00:31:58;;;;;;;10.47;6.23;;;;;;;;;;5035754;28;20033;-80
2023/07/07 00:34:25;;;;;;;13.33;6.17;;;;;;;;;;5036761;28;20385;-80
2023/07/07 00:36:51;;;;;;;8.87;5.80;;;;;;;;;;5035206;28;20029;-79
2023/07/07 00:39:17;;;;;;;9.80;5.37;;;;;;;;;;5037456;28;20021;-80
2023/07/07 00:41:43;;;;;;;10.63;6.60;;;;;;;;;;5053528;28;20044;-79
2023/07/07 00:44:10;;;;;;;9.60;6.03;;;;;;;;;;5036856;28;20135;-80
2023/07/07 00:46:40;;;;;;;12.63;5.87;;;;;;;;;;5037249;28;20029;-80
2023/07/07 00:49:12;;;;;;;8.07;5.33;;;;;;;;;;5037063;28;20063;-79
2023/07/07 00:51:40;;;;;;;8.68;5.45;;;;;;;;;;5038730;28;20033;-80
2023/07/07 00:54:12;;;;;;;12.53;6.63;;;;;;;;;;5037272;28;20030;-80
2023/07/07 00:56:40;;;;;;;14.63;8.30;;;;;;;;;;5053505;28;20021;-80
2023/07/07 00:59:09;;;;;;;12.23;7.57;;;;;;;;;;5054180;28;20032;-80
2023/07/07 01:01:36;;;;;;;13.37;6.40;;;;;;;;;;5035526;28;20048;-81
2023/07/07 01:04:03;;;;;;;12.17;6.67;;;;;;;;;;5035437;28;21818;-79
2023/07/07 01:06:34;;;;;;;13.40;9.07;;;;;;;;;;5036145;28;20184;-80
2023/07/07 01:09:02;;;;;;;15.80;8.70;;;;;;;;;;5037005;28;20025;-80
2023/07/07 01:11:30;;;;;;;13.50;8.30;;;;;;;;;;5052033;28;20033;-79
2023/07/07 01:13:56;;;;;;;15.30;9.03;;;;;;;;;;5034268;28;20207;-80
2023/07/07 01:16:36;;;;;;;12.63;7.83;;;;;;;;;;5033965;28;20095;-80
2023/07/07 01:19:02;;;;;;;14.43;7.57;;;;;;;;;;5038322;28;20507;-79
2023/07/07 01:21:33;;;;;;;15.60;8.43;;;;;;;;;;5039013;28;20030;-81
2023/07/07 01:24:08;;;;;;;12.20;8.23;;;;;;;;;;5039428;28;20108;-79
2023/07/07 01:27:00;;;;;;;12.33;8.20;;;;;;;;;;5036223;28;20033;-80
2023/07/07 01:29:32;;;;;;;12.82;7.72;;;;;;;;;;5032666;28;20044;-80
2023/07/07 01:32:02;;;;;;;12.93;8.57;;;;;;;;;;5034277;28;20056;-80
2023/07/07 01:34:28;;;;;;;15.93;8.80;;;;;;;;;;5037863;28;20083;-80
2023/07/07 01:36:54;;;;;;;15.10;8.70;;;;;;;;;;5035890;28;20040;-79
2023/07/07 01:39:22;;;;;;;15.87;8.10;;;;;;;;;;5037357;28;20104;-80
2023/07/07 01:41:58;;;;;;;16.80;8.70;;;;;;;;;;5037280;28;20037;-80
2023/07/07 01:44:30;;;;;;;16.97;8.60;;;;;;;;;;5036713;28;20036;-80
2023/07/07 01:47:14;;;;;;;13.38;7.72;;;;;;;;;;5052818;28;20041;-80
2023/07/07 01:49:54;;;;;;;12.70;7.13;;;;;;;;;;5037289;28;20187;-80
2023/07/07 01:52:52;;;;;;;15.23;8.47;;;;;;;;;;5035240;28;20156;-79
2023/07/07 01:55:27;;;;;;;11.90;7.80;;;;;;;;;;5023375;28;20033;-79
2023/07/07 01:57:56;;;;;;;10.07;6.90;;;;;;;;;;5047400;28;20026;-79
2023/07/07 02:00:25;;;;;;;15.13;7.53;;;;;;;;;;5035969;28;20025;-80
2023/07/07 02:02:51;;;;;;;12.17;6.83;;;;;;;;;;5034845;28;20025;-79
2023/07/07 02:05:18;;;;;;;9.77;6.03;;;;;;;;;;5034422;28;20110;-79
2023/07/07 02:07:44;;;;;;;10.87;5.73;;;;;;;;;;5035465;28;20490;-79
2023/07/07 02:10:10;;;;;;;11.30;6.13;;;;;;;;;;5034841;28;20064;-80
2023/07/07 02:12:36;;;;;;;10.23;6.50;;;;;;;;;;5050848;28;20037;-80
2023/07/07 02:15:02;;;;;;;11.30;6.10;;;;;;;;;;5035641;28;20067;-79
2023/07/07 02:17:29;;;;;;;12.53;6.37;;;;;;;;;;5034079;28;20120;-80
2023/07/07 02:19:58;;;;;;;8.73;6.00;;;;;;;;;;5037652;28;20026;-79
2023/07/07 02:22:24;;;;;;;8.93;5.80;;;;;;;;;;5036822;28;20039;-80
2023/07/07 02:24:50;;;;;;;12.10;6.30;;;;;;;;;;5032259;28;20393;-80
2023/07/07 02:27:16;;;;;;;8.33;5.87;;;;;;;;;;5033219;28;20756;-79
2023/07/07 02:29:42;;;;;;;12.10;5.80;;;;;;;;;;5035486;28;20037;-81
2023/07/07 02:32:08;;;;;;;8.07;4.93;;;;;;;;;;5036660;28;20033;-80
2023/07/07 02:34:35;;;;;;;7.87;5.33;;;;;;;;;;5033916;28;20108;-80
2023/07/07 02:37:12;;;;;;;9.43;5.33;;;;;;;;;;5034877;28;20034;-80
2023/07/07 02:39:38;;;;;;;8.93;4.37;;;;;;;;;;5032230;28;20021;-80
2023/07/07 02:42:04;;;;;;;9.23;5.77;;;;;;;;;;5035359;28;20063;-80
2023/07/07 02:44:33;;;;;;;10.40;4.90;;;;;;;;;;5034631;28;20574;-79
2023/07/07 02:46:58;;;;;;;9.97;5.10;;;;;;;;;;5032610;28;20037;-79
2023/07/07 02:49:24;;;;;;;10.43;5.50;;;;;;;;;;5035301;28;20033;-80
2023/07/07 02:51:50;;;;;;;8.00;5.17;;;;;;;;;;5035333;28;20347;-80
2023/07/07 02:54:16;;;;;;;7.47;4.60;;;;;;;;;;5033133;28;20029;-79
2023/07/07 02:56:42;;;;;;;9.47;5.73;;;;;;;;;;5049184;28;20068;-79
2023/07/07 02:59:08;;;;;;;8.47;4.93;;;;;;;;;;5032926;28;20025;-79
2023/07/07 03:01:34;;;;;;;8.60;4.37;;;;;;;;;;5034198;28;20036;-80
2023/07/07 03:04:00;;;;;;;9.17;4.63;;;;;;;;;;5032188;28;20163;-79
2023/07/07 03:06:26;;;;;;;6.83;4.37;;;;;;;;;;5034935;28;20036;-80
2023/07/07 03:08:52;;;;;;;8.07;4.57;;;;;;;;;;5033553;28;20033;-80
2023/07/07 03:11:20;;;;;;;8.97;4.33;;;;;;;;;;5029250;28;20049;-80
2023/07/07 03:13:47;;;;;;;7.47;4.47;;;;;;;;;;5032470;28;21726;-80
2023/07/07 03:16:20;;;;;;;8.67;4.43;;;;;;;;;;5033179;28;20091;-80
2023/07/07 03:18:47;;;;;;;9.60;4.10;;;;;;;;;;5032851;28;20493;-80
2023/07/07 03:21:13;;;;;;;7.67;4.47;;;;;;;;;;5034255;28;20040;-80
2023/07/07 03:23:39;;;;;;;8.20;4.47;;;;;;;;;;5031868;28;20045;-79
2023/07/07 03:26:16;;;;;;;10.40;5.03;;;;;;;;;;5033873;28;20121;-80
2023/07/07 03:28:42;;;;;;;9.30;4.33;;;;;;;;;;5049648;28;20450;-80
2023/07/07 03:31:10;;;;;;;8.80;4.13;;;;;;;;;;5031531;28;20026;-80
2023/07/07 03:33:36;;;;;;;9.17;4.50;;;;;;;;;;5049377;28;20069;-80
2023/07/07 03:36:02;;;;;;;8.47;3.90;;;;;;;;;;5034789;28;20124;-79
2023/07/07 03:38:28;;;;;;;7.20;4.03;;;;;;;;;;5031416;28;20022;-79
2023/07/07 03:40:54;;;;;;;7.53;4.13;;;;;;;;;;5033415;28;20040;-80
2023/07/07 03:43:20;;;;;;;7.90;4.20;;;;;;;;;;5032081;28;20116;-80
2023/07/07 03:45:46;;;;;;;7.23;3.50;;;;;;;;;;5032194;28;20033;-80
2023/07/07 03:48:12;;;;;;;11.87;4.93;;;;;;;;;;5032113;28;20044;-80
2023/07/07 03:50:38;;;;;;;6.50;3.50;;;;;;;;;;5033873;28;20045;-79
2023/07/07 03:53:04;;;;;;;5.97;3.43;;;;;;;;;;5032416;28;20026;-80
2023/07/07 03:55:30;;;;;;;6.10;3.80;;;;;;;;;;5033252;28;20029;-80
2023/07/07 03:57:56;;;;;;;6.07;3.47;;;;;;;;;;5035348;28;20052;-80
2023/07/07 04:00:22;;;;;;;6.93;4.10;;;;;;;;;;5035801;28;20033;-80
2023/07/07 04:02:48;;;;;;;9.60;3.73;;;;;;;;;;5036268;28;20036;-80
2023/07/07 04:05:14;;;;;;;9.10;3.77;;;;;;;;;;5030767;28;20103;-79
2023/07/07 04:07:40;;;;;;;8.37;3.43;;;;;;;;;;5033842;28;20067;-80
2023/07/07 04:10:08;;;;;;;9.50;4.13;;;;;;;;;;5034753;28;20033;-80
2023/07/07 04:12:34;;;;;;;6.30;3.53;;;;;;;;;;5035042;28;20036;-79
2023/07/07 04:15:00;;;;;;;7.60;3.33;;;;;;;;;;5048715;28;20034;-79
2023/07/07 04:17:28;;;;;;;9.37;3.27;;;;;;;;;;5033573;28;20028;-79
2023/07/07 04:19:54;;;;;;;7.73;3.83;;;;;;;;;;5033374;28;20026;-80
2023/07/07 04:22:20;;;;;;;9.30;3.60;;;;;;;;;;5035833;28;20025;-80
2023/07/07 04:24:46;;;;;;;10.17;3.47;;;;;;;;;;5032543;28;20461;-80
2023/07/07 04:27:12;;;;;;;4.43;2.37;;;;;;;;;;5035861;28;20033;-79
2023/07/07 04:29:38;;;;;;;8.07;3.00;;;;;;;;;;5036442;28;20037;-80
2023/07/07 04:32:05;;;;;;;8.30;2.90;;;;;;;;;;5040029;28;20029;-79
2023/07/07 04:34:31;;;;;;;11.43;3.13;;;;;;;;;;5035788;28;20025;-80
2023/07/07 04:36:59;;;;;;;6.93;3.00;;;;;;;;;;5037797;28;20064;-80
2023/07/07 04:39:25;;;;;;;5.50;2.50;;;;;;;;;;5040230;28;20025;-79
2023/07/07 04:41:51;;;;;;;5.00;2.87;;;;;;;;;;5037903;28;20089;-80
2023/07/07 04:44:17;;;;;;;6.10;2.60;;;;;;;;;;5039023;28;20052;-80
2023/07/07 04:46:43;;;;;;;7.20;2.63;;;;;;;;;;5040853;28;20099;-80
2023/07/07 04:49:10;;;;;;;3.70;2.40;;;;;;;;;;5042242;28;20029;-80
2023/07/07 04:51:42;;;;;;;3.60;1.93;;;;;;;;;;5040156;28;20140;-80
2023/07/07 04:54:11;;;;;;;4.87;2.67;;;;;;;;;;5047087;28;20021;-80
2023/07/07 04:56:37;;;;;;;6.90;2.43;;;;;;;;;;5047055;28;20041;-80
2023/07/07 04:59:03;;;;;;;10.27;2.40;;;;;;;;;;5044431;28;20094;-80
2023/07/07 05:01:30;;;;;;;4.50;2.30;;;;;;;;;;5043343;28;20053;-79
2023/07/07 05:04:01;;;;;;;5.23;2.60;;;;;;;;;;5042116;28;20029;-80
2023/07/07 05:06:29;;;;;;;6.97;3.00;;;;;;;;;;5043540;28;20044;-80
2023/07/07 05:08:57;;;;;;;5.53;1.97;;;;;;;;;;5046144;28;20033;-79
2023/07/07 05:11:24;;;;;;;6.60;1.90;;;;;;;;;;5039315;28;20116;-80
2023/07/07 05:13:51;;;;;;;5.80;2.30;;;;;;;;;;5045595;28;20037;-80
2023/07/07 05:16:18;;;;;;;4.63;2.10;;;;;;;;;;5059260;28;20029;-80
2023/07/07 05:18:44;;;;;;;3.70;2.17;;;;;;;;;;5049668;28;20029;-79
2023/07/07 05:21:11;;;;;;;6.63;2.33;;;;;;;;;;5046875;28;20025;-80
2023/07/07 05:23:37;;;;;;;4.97;2.13;;;;;;;;;;5047402;28;20099;-79
2023/07/07 05:26:03;;;;;;;5.90;2.42;;;;;;;;;;5046029;28;20037;-78
2023/07/07 05:28:29;;;;;;;11.63;2.10;;;;;;;;;;5048502;28;20033;-80
2023/07/07 05:30:55;;;;;;;4.80;1.98;;;;;;;;;;5043097;28;20489;-80
2023/07/07 05:33:22;;;;;;;6.55;2.53;;;;;;;;;;5041689;28;20029;-79
2023/07/07 05:35:49;;;;;;;8.63;2.22;;;;;;;;;;5059223;28;20034;-80
2023/07/07 05:38:16;;;;;;;6.10;2.42;;;;;;;;;;5038870;28;20021;-81
2023/07/07 05:40:47;;;;;;;6.35;2.15;;;;;;;;;;5045416;28;20094;-80
2023/07/07 05:43:13;;;;;;;6.43;2.20;;;;;;;;;;5042599;28;20061;-78
2023/07/07 05:45:39;;;;;;;7.07;2.28;;;;;;;;;;5043700;28;20029;-79
2023/07/07 05:48:06;;;;;;;11.52;2.20;;;;;;;;;;5041799;28;20083;-80
2023/07/07 05:50:32;;;;;;;5.07;2.10;;;;;;;;;;5043408;28;20041;-80
2023/07/07 05:52:58;;;;;;;4.45;1.85;;;;;;;;;;5041360;28;20025;-80
2023/07/07 05:55:29;;;;;;;4.45;1.83;;;;;;;;;;5041830;28;20064;-80
2023/07/07 05:57:55;;;;;;;5.40;2.03;;;;;;;;;;5041083;28;20056;-80
2023/07/07 06:00:26;;;;;;;4.35;1.60;;;;;;;;;;5040280;28;20033;-79
2023/07/07 06:02:52;;;;;;;8.93;1.60;;;;;;;;;;5043219;28;20373;-79
2023/07/07 06:05:18;;;;;;;6.57;1.98;;;;;;;;;;5044270;28;20036;-78
2023/07/07 06:07:46;;;;;;;12.00;2.28;;;;;;;;;;5043315;28;20029;-80
2023/07/07 06:10:12;;;;;;;8.93;1.55;;;;;;;;;;5040788;28;20141;-80
2023/07/07 06:12:38;;;;;;;3.28;1.60;;;;;;;;;;5044135;28;20037;-78
2023/07/07 06:15:04;;;;;;;5.75;1.60;;;;;;;;;;5061496;28;20059;-80
2023/07/07 06:17:30;;;;;;;4.50;1.90;;;;;;;;;;5043198;28;20049;-80
2023/07/07 06:19:56;;;;;;;4.75;1.88;;;;;;;;;;5036699;28;20029;-80
2023/07/07 06:22:22;;;;;;;4.60;1.30;;;;;;;;;;5041057;28;20033;-80
2023/07/07 06:24:49;;;;;;;3.70;1.58;;;;;;;;;;5041719;28;20034;-80
2023/07/07 06:27:15;;;;;;;4.78;1.55;;;;;;;;;;5043644;28;20121;-81
2023/07/07 06:29:41;;;;;;;4.45;1.80;;;;;;;;;;5038766;28;20041;-80
2023/07/07 06:32:07;;;;;;;6.97;1.73;;;;;;;;;;5040163;28;20340;-80
2023/07/07 06:34:33;;;;;;;5.38;2.20;;;;;;;;;;5043533;28;20030;-78
2023/07/07 06:36:59;;;;;;;2.58;1.40;;;;;;;;;;5042276;28;20024;-78
2023/07/07 06:39:27;;;;;;;5.95;1.67;;;;;;;;;;5044215;28;20018;-80
2023/07/07 06:41:53;;;;;;;2.88;1.40;;;;;;;;;;5043812;28;20045;-78
2023/07/07 06:44:19;;;;;;;4.13;2.13;;;;;;;;;;5042099;28;20030;-78
2023/07/07 06:46:45;;;;;;;5.85;2.10;;;;;;;;;;5041063;28;20083;-79
2023/07/07 06:49:11;;;;;;;3.70;1.50;;;;;;;;;;5040150;28;21557;-81
2023/07/07 06:51:37;;;;;;;2.95;1.52;;;;;;;;;;5037413;28;20025;-79
2023/07/07 06:54:03;;;;;;;3.00;1.60;;;;;;;;;;5044331;28;20033;-79
2023/07/07 06:56:29;;;;;;;2.17;1.33;;;;;;;;;;5057014;28;20040;-79
2023/07/07 06:59:08;;;;;;;3.28;1.52;;;;;;;;;;5043411;28;20017;-79
2023/07/07 07:01:34;;;;;;;5.60;2.13;;;;;;;;;;5046478;28;20029;-79
2023/07/07 07:04:01;;;;;;;7.40;1.70;;;;;;;;;;5044938;28;20031;-78
2023/07/07 07:06:28;;;;;;;4.18;1.50;;;;;;;;;;5040168;28;20033;-77
2023/07/07 07:08:54;;;;;;;2.63;1.40;;;;;;;;;;5041501;28;20110;-81
2023/07/07 07:11:20;;;;;;;5.55;1.70;;;;;;;;;;5043401;28;20613;-80
2023/07/07 07:13:47;;;;;;;3.97;1.30;;;;;;;;;;5038984;28;20079;-80
2023/07/07 07:16:13;;;;;;;7.10;1.55;;;;;;;;;;5039108;28;20089;-80
2023/07/07 07:18:39;;;;;;;4.15;1.92;;;;;;;;;;5041282;28;20172;-79
2023/07/07 07:21:05;;;;;;;7.80;1.42;;;;;;;;;;5039572;28;20033;-79
2023/07/07 07:23:31;;;;;;;2.95;1.40;;;;;;;;;;5039346;28;20037;-79
2023/07/07 07:25:57;;;;;;;4.30;1.40;;;;;;;;;;5041230;28;20033;-79
2023/07/07 07:28:23;;;;;;;4.32;2.00;;;;;;;;;;5037930;28;20029;-80
2023/07/07 07:30:49;;;;;;;2.08;1.17;;;;;;;;;;5034315;28;20044;-80
2023/07/07 07:33:20;;;;;;;9.85;2.20;;;;;;;;;;5031338;28;20088;-79
2023/07/07 07:35:47;;;;;;;3.50;1.40;;;;;;;;;;5031627;28;20049;-79
2023/07/07 07:38:17;;;;;;;6.15;1.85;;;;;;;;;;5032383;28;20117;-79
2023/07/07 07:40:45;;;;;;;4.15;1.92;;;;;;;;;;5036814;28;20048;-79
2023/07/07 07:43:11;;;;;;;5.40;1.58;;;;;;;;;;5037438;28;20033;-78
2023/07/07 07:45:37;;;;;;;8.73;2.03;;;;;;;;;;5042709;28;20032;-79
2023/07/07 07:48:04;;;;;;;4.47;1.67;;;;;;;;;;5035991;28;20022;-80
2023/07/07 07:50:33;;;;;;;6.00;1.50;;;;;;;;;;5037624;28;20029;-78
2023/07/07 07:52:59;;;;;;;7.15;2.67;;;;;;;;;;5054104;28;20046;-79
2023/07/07 07:55:26;;;;;;;4.22;1.40;;;;;;;;;;5046809;28;20121;-80
2023/07/07 07:57:52;;;;;;;7.07;1.80;;;;;;;;;;5034512;28;20033;-79
2023/07/07 08:00:18;;;;;;;7.82;1.58;;;;;;;;;;5036066;28;20026;-79
2023/07/07 08:02:44;;;;;;;4.15;1.75;;;;;;;;;;5036419;28;20037;-80
2023/07/07 08:05:13;;;;;;;5.40;1.77;;;;;;;;;;5042784;28;20045;-79
2023/07/07 08:07:39;;;;;;;4.80;1.88;;;;;;;;;;5043269;28;20037;-80
2023/07/07 08:10:05;;;;;;;4.65;2.17;;;;;;;;;;5057550;28;20040;-78
2023/07/07 08:12:33;;;;;;;5.78;2.20;;;;;;;;;;5057240;28;20098;-80
2023/07/07 08:14:59;;;;;;;5.60;1.58;;;;;;;;;;5058238;28;20079;-79
2023/07/07 08:17:25;;;;;;;3.40;1.33;;;;;;;;;;5042621;28;20120;-78
2023/07/07 08:19:53;;;;;;;8.95;1.75;;;;;;;;;;5042668;28;20056;-78
2023/07/07 08:22:21;;;;;;;7.28;1.67;;;;;;;;;;5041858;28;20053;-80
2023/07/07 08:24:48;;;;;;;7.82;1.92;;;;;;;;;;5058894;28;20039;-79
2023/07/07 08:27:15;;;;;;;4.18;1.42;;;;;;;;;;5043415;28;20034;-79
2023/07/07 08:29:41;;;;;;;4.97;1.73;;;;;;;;;;5042223;28;20495;-79
2023/07/07 08:32:08;;;;;;;3.42;1.98;;;;;;;;;;5042343;28;20026;-80
2023/07/07 08:34:34;;;;;;;10.43;2.38;;;;;;;;;;5044350;28;20025;-79
2023/07/07 08:37:00;;;;;;;4.25;1.58;;;;;;;;;;5042063;28;20030;-79
2023/07/07 08:39:28;;;;;;;4.53;1.38;;;;;;;;;;5044423;28;20043;-79
2023/07/07 08:41:59;;;;;;;4.60;1.50;;;;;;;;;;5059919;28;20526;-78
2023/07/07 08:44:29;;;;;;;3.15;1.65;;;;;;;;;;5061706;28;20529;-80
2023/07/07 08:47:03;;;;;;;10.05;1.30;;;;;;;;;;5058952;28;20033;-80
2023/07/07 08:49:35;;;;;;;5.03;1.50;;;;;;;;;;5046308;28;20017;-78
2023/07/07 08:52:11;;;;;;;6.28;1.40;;;;;;;;;;5042097;28;20037;-79
2023/07/07 08:54:45;;;;;;;3.95;1.48;;;;;;;;;;5061955;28;20307;-80
2023/07/07 08:57:12;;;;;;;4.18;1.73;;;;;;;;;;5045035;28;20115;-80
2023/07/07 08:59:57;;;;;;;13.38;1.63;;;;;;;;;;5044459;28;20089;-78
2023/07/07 09:02:32;;;;;;;2.95;1.20;;;;;;;;;;5046385;28;20034;-79
2023/07/07 09:05:12;;;;;;;4.15;1.70;;;;;;;;;;5045666;28;20085;-80
2023/07/07 09:07:38;;;;;;;5.35;1.52;;;;;;;;;;5047102;28;21160;-80
2023/07/07 09:10:07;;;;;;;1.98;1.10;;;;;;;;;;5046527;28;20030;-79
2023/07/07 09:12:43;;;;;;;4.85;1.80;;;;;;;;;;5047795;28;20036;-80
2023/07/07 09:15:12;;;;;;;5.55;1.85;;;;;;;;;;5041099;28;20063;-80
2023/07/07 09:17:41;;;;;;;6.03;1.90;;;;;;;;;;5041484;28;20043;-79
2023/07/07 09:20:09;;;;;;;4.00;1.30;;;;;;;;;;5037804;28;20037;-79
2023/07/07 09:22:48;;;;;;;5.05;1.60;;;;;;;;;;5033319;28;20120;-78
2023/07/07 09:25:20;;;;;;;3.58;1.40;;;;;;;;;;5031132;28;20949;-79
2023/07/07 09:27:50;;;;;;;8.15;1.65;;;;;;;;;;5047610;28;20040;-80
2023/07/07 09:30:22;;;;;;;3.58;1.80;;;;;;;;;;5031566;28;20029;-80
2023/07/07 09:32:49;;;;;;;4.07;1.52;;;;;;;;;;5047448;28;20037;-80
2023/07/07 09:35:15;;;;;;;4.97;1.63;;;;;;;;;;5030521;28;20026;-80
2023/07/07 09:38:04;;;;;;;4.70;1.63;;;;;;;;;;5030710;28;20107;-81
2023/07/07 09:40:33;;;;;;;4.40;1.92;;;;;;;;;;5030330;28;20405;-80
2023/07/07 09:43:11;;;;;;;5.35;1.92;;;;;;;;;;5030214;28;20113;-80
2023/07/07 09:45:42;;;;;;;4.63;2.22;;;;;;;;;;5031108;28;20029;-80
2023/07/07 09:48:18;;;;;;;4.13;2.15;;;;;;;;;;5046585;28;20030;-80
2023/07/07 09:50:50;;;;;;;4.20;2.28;;;;;;;;;;5031952;28;20366;-81
2023/07/07 09:53:22;;;;;;;3.58;1.55;;;;;;;;;;5031110;28;20018;-81
2023/07/07 09:55:48;;;;;;;6.50;3.55;;;;;;;;;;5031657;28;20032;-81
2023/07/07 09:58:17;;;;;;;2.92;1.63;;;;;;;;;;5031588;28;20372;-81
2023/07/07 10:00:45;;;;;;;3.22;1.50;;;;;;;;;;5030865;28;20041;-82
2023/07/07 10:03:16;;;;;;;2.60;1.65;;;;;;;;;;5030091;28;20378;-81
2023/07/07 10:05:43;;;;;;;4.45;2.05;;;;;;;;;;5045543;28;20032;-81
2023/07/07 10:08:12;;;;;;;3.15;1.77;;;;;;;;;;5029712;28;20018;-80
2023/07/07 10:10:38;;;;;;;8.27;1.60;;;;;;;;;;5031394;28;20017;-81
2023/07/07 10:13:08;;;;;;;3.72;1.40;;;;;;;;;;5030966;28;20029;-81
2023/07/07 10:15:34;;;;;;;3.13;1.40;;;;;;;;;;5028454;28;20075;-81
2023/07/07 10:18:11;;;;;;;5.03;1.60;;;;;;;;;;5028253;28;20033;-82
2023/07/07 10:20:37;;;;;;;2.42;1.60;;;;;;;;;;5028431;28;20377;-81
2023/07/07 10:23:03;;;;;;;3.80;1.45;;;;;;;;;;5027683;28;20120;-81
2023/07/07 10:25:30;;;;;;;4.25;1.55;;;;;;;;;;5029854;28;20029;-81
2023/07/07 10:27:56;;;;;;;8.50;1.85;;;;;;;;;;5030491;28;20029;-81
2023/07/07 10:30:22;;;;;;;2.90;1.40;;;;;;;;;;5028614;28;20497;-81
2023/07/07 10:32:50;;;;;;;3.67;1.60;;;;;;;;;;5030841;28;20128;-81
2023/07/07 10:35:18;;;;;;;4.63;1.38;;;;;;;;;;5031887;28;20013;-81
2023/07/07 10:37:44;;;;;;;5.28;1.65;;;;;;;;;;5032173;28;20036;-81
2023/07/07 10:40:13;;;;;;;3.20;1.50;;;;;;;;;;5028495;28;20036;-82
2023/07/07 10:42:39;;;;;;;6.90;2.10;;;;;;;;;;5030959;28;20025;-82
2023/07/07 10:45:05;;;;;;;5.55;1.52;;;;;;;;;;5033237;28;20040;-81
2023/07/07 10:47:35;;;;;;;3.35;1.75;;;;;;;;;;5027110;28;20025;-82
2023/07/07 10:50:02;;;;;;;3.03;1.70;;;;;;;;;;5029943;28;20025;-80
2023/07/07 10:52:28;;;;;;;7.07;2.33;;;;;;;;;;5025381;28;20025;-82
2023/07/07 10:55:04;;;;;;;4.85;1.92;;;;;;;;;;5030091;28;20233;-81
2023/07/07 10:57:57;;;;;;;4.85;1.90;;;;;;;;;;5030105;28;20041;-81
2023/07/07 11:00:35;;;;;;;5.32;1.58;;;;;;;;;;5029825;28;20029;-81
2023/07/07 11:03:01;;;;;;;5.40;1.90;;;;;;;;;;5027907;28;20048;-81
2023/07/07 11:05:35;;;;;;;4.43;1.58;;;;;;;;;;5025800;28;20033;-82
2023/07/07 11:08:01;;;;;;;3.42;1.67;;;;;;;;;;5026479;28;20033;-80
2023/07/07 11:10:46;;;;;;;3.40;1.48;;;;;;;;;;5024819;28;20025;-81
2023/07/07 11:13:15;;;;;;;5.28;2.63;;;;;;;;;;5028367;28;20026;-81
2023/07/07 11:15:45;;;;;;;5.30;1.70;;;;;;;;;;5024747;28;20612;-82
2023/07/07 11:18:11;;;;;;;2.00;1.50;;;;;;;;;;5027936;28;20045;-81
2023/07/07 11:20:56;;;;;;;2.08;1.33;;;;;;;;;;5030418;28;20049;-82
2023/07/07 11:23:25;;;;;;;3.28;1.63;;;;;;;;;;5029146;28;20118;-80
2023/07/07 11:26:06;;;;;;;2.45;1.40;;;;;;;;;;5044649;28;20047;-81
2023/07/07 11:28:52;;;;;;;4.70;1.95;;;;;;;;;;5026086;28;20078;-80
2023/07/07 11:31:25;;;;;;;3.55;1.70;;;;;;;;;;5045167;28;20169;-81
2023/07/07 11:34:00;;;;;;;3.35;1.88;;;;;;;;;;5030653;28;20025;-81
2023/07/07 11:36:26;;;;;;;4.22;1.70;;;;;;;;;;5029625;28;20029;-81
2023/07/07 11:39:04;;;;;;;4.05;1.55;;;;;;;;;;5035428;28;20090;-81
2023/07/07 11:41:33;;;;;;;6.68;2.20;;;;;;;;;;5033033;28;20029;-81
2023/07/07 11:44:02;;;;;;;5.32;2.22;;;;;;;;;;5034341;28;20044;-80
2023/07/07 11:46:40;;;;;;;4.20;1.95;;;;;;;;;;5051793;28;20033;-80
2023/07/07 11:49:25;;;;;;;3.33;1.83;;;;;;;;;;5034981;28;20049;-81
2023/07/07 11:52:11;;;;;;;4.72;1.95;;;;;;;;;;5032744;28;20029;-81
2023/07/07 11:54:37;;;;;;;3.72;1.63;;;;;;;;;;5031750;28;20601;-81
2023/07/07 11:57:07;;;;;;;2.88;1.63;;;;;;;;;;5035032;28;20025;-81
2023/07/07 11:59:48;;;;;;;2.70;1.60;;;;;;;;;;5032403;28;20485;-80
2023/07/07 12:02:20;;;;;;;3.78;1.65;;;;;;;;;;5050035;28;20456;-82
2023/07/07 12:04:46;;;;;;;4.60;1.75;;;;;;;;;;5033843;28;20099;-81
2023/07/07 12:07:16;;;;;;;5.35;1.73;;;;;;;;;;5031841;28;20129;-81
2023/07/07 12:10:00;;;;;;;4.45;1.90;;;;;;;;;;5032113;28;20040;-80
2023/07/07 12:12:36;;;;;;;8.73;1.70;;;;;;;;;;5033905;28;20136;-81
2023/07/07 12:15:10;;;;;;;3.60;1.48;;;;;;;;;;5035721;28;20033;-81
2023/07/07 12:17:37;;;;;;;2.97;1.40;;;;;;;;;;5031247;28;20034;-79
2023/07/07 12:20:18;;;;;;;6.10;1.70;;;;;;;;;;5035047;28;20500;-80
2023/07/07 12:22:45;;;;;;;3.45;1.80;;;;;;;;;;5034898;28;20187;-81
2023/07/07 12:25:25;;;;;;;5.60;1.60;;;;;;;;;;5051211;28;20026;-81
2023/07/07 12:27:52;;;;;;;3.88;1.70;;;;;;;;;;5033375;28;20230;-81
2023/07/07 12:30:37;;;;;;;2.22;1.38;;;;;;;;;;5032107;28;20048;-81
2023/07/07 12:33:05;;;;;;;2.97;1.48;;;;;;;;;;5034254;28;20117;-81
2023/07/07 12:35:42;;;;;;;2.75;1.42;;;;;;;;;;5050761;28;20032;-79
2023/07/07 12:38:18;;;;;;;4.57;1.73;;;;;;;;;;5033271;28;20029;-80
2023/07/07 12:40:44;;;;;;;3.03;1.45;;;;;;;;;;5033541;28;20095;-79
2023/07/07 12:43:27;;;;;;;3.88;1.38;;;;;;;;;;5034445;28;20044;-80
2023/07/07 12:45:53;;;;;;;3.10;1.33;;;;;;;;;;5031238;28;20030;-79
2023/07/07 12:48:20;;;;;;;5.70;2.58;;;;;;;;;;5031093;28;20045;-79
2023/07/07 12:50:48;;;;;;;2.88;1.50;;;;;;;;;;5045175;28;20405;-80
2023/07/07 12:53:33;;;;;;;3.42;1.67;;;;;;;;;;5031401;28;20013;-80
2023/07/07 12:56:01;;;;;;;3.65;1.50;;;;;;;;;;5030595;28;20060;-80
2023/07/07 12:58:31;;;;;;;2.70;1.60;;;;;;;;;;5028645;28;20092;-80
2023/07/07 13:01:05;;;;;;;3.38;1.90;;;;;;;;;;5031642;28;20075;-80
2023/07/07 13:03:31;;;;;;;4.25;1.60;;;;;;;;;;5030699;28;20532;-80
2023/07/07 13:06:00;;;;;;;2.10;1.48;;;;;;;;;;5030481;28;20029;-80
2023/07/07 13:08:39;;;;;;;2.35;1.70;;;;;;;;;;5028530;28;20030;-78
2023/07/07 13:11:15;;;;;;;5.20;1.40;;;;;;;;;;5029047;28;21565;-80
2023/07/07 13:13:44;;;;;;;4.63;1.80;;;;;;;;;;5029864;28;20026;-80
2023/07/07 13:16:11;;;;;;;7.30;1.98;;;;;;;;;;5027155;28;20754;-79
2023/07/07 13:18:38;;;;;;;3.55;1.80;;;;;;;;;;5046019;28;20025;-80
2023/07/07 13:21:04;;;;;;;3.95;1.98;;;;;;;;;;5027800;28;20022;-79
2023/07/07 13:23:41;;;;;;;11.85;1.63;;;;;;;;;;5030973;28;20036;-80
2023/07/07 13:26:21;;;;;;;3.67;1.83;;;;;;;;;;5025606;28;20037;-79
2023/07/07 13:28:47;;;;;;;5.47;1.85;;;;;;;;;;5030243;28;20025;-80
2023/07/07 13:31:15;;;;;;;3.10;2.03;;;;;;;;;;5030627;28;20029;-80
2023/07/07 13:33:40;;;;;;;2.92;1.60;;;;;;;;;;5028852;28;20029;-80
2023/07/07 13:36:08;;;;;;;4.18;1.65;;;;;;;;;;5029627;28;20067;-80
2023/07/07 13:38:37;;;;;;;5.65;1.88;;;;;;;;;;5028174;28;20014;-80
2023/07/07 13:41:06;;;;;;;2.80;1.67;;;;;;;;;;5044878;28;20056;-80
2023/07/07 13:43:39;;;;;;;3.10;2.20;;;;;;;;;;5027133;28;20025;-80
2023/07/07 13:46:20;;;;;;;3.95;2.33;;;;;;;;;;5030595;28;20021;-80
2023/07/07 13:48:48;;;;;;;2.22;1.70;;;;;;;;;;5026379;28;20026;-80
2023/07/07 13:51:21;;;;;;;3.17;1.60;;;;;;;;;;5047102;28;20041;-80
2023/07/07 13:53:47;;;;;;;2.40;1.70;;;;;;;;;;5033436;28;20033;-81
2023/07/07 13:56:14;;;;;;;3.92;2.08;;;;;;;;;;5028200;28;20026;-80
2023/07/07 13:58:44;;;;;;;3.50;2.00;;;;;;;;;;5028827;28;20040;-80
2023/07/07 14:01:26;;;;;;;3.80;1.60;;;;;;;;;;5045110;28;20075;-80
2023/07/07 14:03:52;;;;;;;3.95;1.80;;;;;;;;;;5028800;28;20599;-80
2023/07/07 14:06:22;;;;;;;3.33;1.73;;;;;;;;;;5045257;28;20037;-79
2023/07/07 14:08:48;;;;;;;4.57;2.10;;;;;;;;;;5028290;28;20116;-80
2023/07/07 14:11:22;;;;;;;2.78;2.20;;;;;;;;;;5024671;28;20030;-80
2023/07/07 14:13:53;;;;;;;3.95;1.98;;;;;;;;;;5028840;28;20021;-80
2023/07/07 14:16:30;;;;;;;3.15;2.10;;;;;;;;;;5028226;28;20029;-81
2023/07/07 14:19:04;;;;;;;4.28;2.35;;;;;;;;;;5029124;28;20048;-79
2023/07/07 14:21:30;;;;;;;3.70;2.08;;;;;;;;;;5029279;28;20033;-80
2023/07/07 14:23:57;;;;;;;5.20;2.40;;;;;;;;;;5046156;28;20116;-79
2023/07/07 14:26:24;;;;;;;2.65;1.65;;;;;;;;;;5046112;28;20033;-79
2023/07/07 14:28:51;;;;;;;4.18;1.92;;;;;;;;;;5027296;28;20041;-80
2023/07/07 14:31:17;;;;;;;2.75;1.70;;;;;;;;;;5025419;28;20040;-81
2023/07/07 14:33:58;;;;;;;5.05;2.42;;;;;;;;;;5027767;28;20025;-81
2023/07/07 14:36:26;;;;;;;6.75;1.98;;;;;;;;;;5027674;28;20041;-80
2023/07/07 14:38:59;;;;;;;4.78;2.38;;;;;;;;;;5029445;28;20852;-79
2023/07/07 14:41:26;;;;;;;2.67;2.08;;;;;;;;;;5022503;28;20029;-81
2023/07/07 14:43:52;;;;;;;2.95;1.98;;;;;;;;;;5025116;28;20029;-80
2023/07/07 14:46:21;;;;;;;4.38;2.40;;;;;;;;;;5028382;28;20029;-80
2023/07/07 14:48:51;;;;;;;5.13;2.30;;;;;;;;;;5026163;28;20038;-80
2023/07/07 14:51:19;;;;;;;2.88;1.90;;;;;;;;;;5026392;28;20140;-81